Thunderstorms From: 21-05-2018 15:00 Until: 22-05-2018 15:00 warning for: Thunderstorms Level: Yellow info button

Although rather usual in this region, locally or potentially dangerous phenomena are expected. (such as local winds, summer thunderstorms, rising streams or high waves) Be aware and pay attention to the latest weather updates, especially if you carry out activities exposed to weather or close to a stream or shoreline. 


Meteo18 Weather Cam more information Meteo18 Weather Cam


warning for Thunderstorms more information blitzortung!


Rain radar more information rain snow radar


Visit our other weather sites:

Template documentation
and downloads

And another site



Weather Underground History page Text

Daily Summary for May 15, 2017 Units:  Metric    English   Both
« Previous Day
Next Day »
Daily Weekly Monthly Yearly Custom
  High: Low: Average:
Temperature: -17.8 °C -13.8 °C -8.9 °C
Dew Point: -17.8 °C -14.3 °C -12.3 °C
Humidity: Humidity % 41 % 70 %
Wind Speed: 0 km/h 0 km/h 1.4 km/h
Wind Gust: 0 km/h - -
Wind:- - South
Pressure: 0 hPa 34797.9 hPa -
Precipitation: 0 mm    
Historical Graphs
 
 
Tabular Data for May 15, 2017
Time Temperature Dew Point Pressure Wind Wind Speed Wind Gust Humidity Rainfall Rate (Hourly)
-17.8 °C -17.8 °C 0 hPa Calm     Humidity % 0 mm
00:02 -11.7 °C -13.1 °C 34797.9 hPa Calm     85 % 0 mm
00:07 -11.8 °C -13.1 °C 34808.1 hPa Calm   2.6 km/h 86 % 0 mm
00:12 -12 °C -13.2 °C 34808.1 hPa Calm   2.6 km/h 87 % 0 mm
00:17 -12 °C -13.2 °C 34808.1 hPa Calm   2.6 km/h 86 % 0 mm
00:22 -12 °C -13.2 °C 34808.1 hPa Calm   5.1 km/h 86 % 0 mm
00:32 -12 °C -13.2 °C 34808.1 hPa Calm   5.1 km/h 86 % 0 mm
00:42 -11.9 °C -13.3 °C 34808.1 hPa Calm     84 % 0 mm
00:52 -12.1 °C -13.4 °C 34808.1 hPa Calm     85 % 0 mm
00:57 -12.1 °C -13.3 °C 34808.1 hPa Calm     86 % 0 mm
01:02 -12.1 °C -13.3 °C 34808.1 hPa Calm     87 % 0 mm
01:12 -12.3 °C -13.4 °C 34808.1 hPa Calm     87 % 0 mm
01:17 -12.2 °C -13.3 °C 34818.2 hPa Calm     88 % 0 mm
01:22 -12.3 °C -13.3 °C 34808.1 hPa Calm     88 % 0 mm
01:32 -12.3 °C -13.4 °C 34808.1 hPa Calm     88 % 0 mm
01:37 -12.4 °C -13.5 °C 34808.1 hPa Calm     88 % 0 mm
01:42 -12.6 °C -13.5 °C 34808.1 hPa Calm     89 % 0 mm
01:47 -12.6 °C -13.6 °C 34818.2 hPa Calm     89 % 0 mm
01:52 -12.7 °C -13.6 °C 34818.2 hPa Calm     90 % 0 mm
01:57 -12.6 °C -13.5 °C 34818.2 hPa Calm     90 % 0 mm
02:02 -12.6 °C -13.5 °C 34818.2 hPa Calm     89 % 0 mm
02:12 -12.6 °C -13.5 °C 34818.2 hPa Calm     89 % 0 mm
02:17 -12.6 °C -13.5 °C 34818.2 hPa Calm     89 % 0 mm
02:22 -12.6 °C -13.7 °C 34818.2 hPa Calm     88 % 0 mm
02:32 -12.7 °C -13.6 °C 34818.2 hPa Calm     89 % 0 mm
02:42 -12.8 °C -13.7 °C 34818.2 hPa Calm     90 % 0 mm
02:47 -12.8 °C -13.7 °C 34818.2 hPa Calm     90 % 0 mm
02:52 -12.9 °C -13.8 °C 34818.2 hPa Calm     90 % 0 mm
02:57 -12.9 °C -13.8 °C 34818.2 hPa Calm     90 % 0 mm
03:02 -13.1 °C -13.9 °C 34818.2 hPa Calm     90 % 0 mm
03:12 -13.1 °C -13.8 °C 34831.8 hPa Calm     92 % 0 mm
03:17 -13.1 °C -13.8 °C 34831.8 hPa Calm     92 % 0 mm
03:22 -13.1 °C -13.8 °C 34831.8 hPa Calm     92 % 0 mm
03:27 -13.2 °C -13.8 °C 34831.8 hPa Calm     92 % 0 mm
03:32 -13.2 °C -13.9 °C 34831.8 hPa Calm     92 % 0 mm
03:37 -13.2 °C -13.9 °C 34831.8 hPa Calm     92 % 0 mm
03:42 -13.2 °C -13.9 °C 34831.8 hPa Calm     92 % 0 mm
03:47 -13.2 °C -13.8 °C 34831.8 hPa Calm     93 % 0 mm
03:52 -13.2 °C -13.8 °C 34831.8 hPa Calm     93 % 0 mm
03:57 -13.3 °C -13.9 °C 34831.8 hPa Calm     92 % 0 mm
04:02 -13.3 °C -13.9 °C 34831.8 hPa Calm     93 % 0 mm
04:07 -13.3 °C -13.9 °C 34831.8 hPa Calm     92 % 0 mm
04:12 -13.3 °C -13.9 °C 34831.8 hPa Calm     93 % 0 mm
04:17 -13.3 °C -13.9 °C 34831.8 hPa Calm     93 % 0 mm
04:22 -13.3 °C -13.9 °C 34831.8 hPa Calm     93 % 0 mm
04:27 -13.3 °C -13.9 °C 34831.8 hPa Calm     93 % 0 mm
04:32 -13.3 °C -13.9 °C 34831.8 hPa Calm     93 % 0 mm
04:37 -13.3 °C -13.9 °C 34841.9 hPa Calm     93 % 0 mm
04:42 -13.3 °C -13.9 °C 34841.9 hPa Calm     93 % 0 mm
04:47 -13.4 °C -14 °C 34831.8 hPa Calm     93 % 0 mm
04:52 -13.4 °C -14 °C 34841.9 hPa Calm     93 % 0 mm
05:02 -13.4 °C -14.1 °C 34831.8 hPa Calm     93 % 0 mm
05:12 -13.6 °C -14.2 °C 34831.8 hPa Calm     93 % 0 mm
05:17 -13.6 °C -14.1 °C 34831.8 hPa Calm     94 % 0 mm
05:22 -13.6 °C -14.1 °C 34831.8 hPa Calm     94 % 0 mm
05:32 -13.7 °C -14.2 °C 34841.9 hPa Calm     94 % 0 mm
05:37 -13.6 °C -14.1 °C 34841.9 hPa Calm     94 % 0 mm
05:42 -13.6 °C -14.1 °C 34841.9 hPa Calm     94 % 0 mm
05:47 -13.6 °C -13.9 °C 34841.9 hPa Calm     95 % 0 mm
05:52 -13.5 °C -14 °C 34841.9 hPa Calm     94 % 0 mm
06:02 -13.5 °C -13.9 °C 34841.9 hPa Calm     95 % 0 mm
06:12 -13.6 °C -14.1 °C 34841.9 hPa Calm     94 % 0 mm
06:17 -13.6 °C -14.1 °C 34841.9 hPa Calm     94 % 0 mm
06:22 -13.7 °C -14.2 °C 34841.9 hPa Calm     94 % 0 mm
06:27 -13.7 °C -14.2 °C 34841.9 hPa Calm     94 % 0 mm
06:32 -13.7 °C -14.1 °C 34841.9 hPa Calm     95 % 0 mm
06:37 -13.7 °C -14.2 °C 34841.9 hPa Calm     94 % 0 mm
06:42 -13.7 °C -14.2 °C 34852.1 hPa Calm     94 % 0 mm
06:47 -13.7 °C -14.2 °C 34841.9 hPa Calm     94 % 0 mm
06:52 -13.7 °C -14.2 °C 34852.1 hPa Calm     94 % 0 mm
06:57 -13.8 °C -14.3 °C 34852.1 hPa Calm     94 % 0 mm
07:02 -13.7 °C -14.1 °C 34852.1 hPa Calm     95 % 0 mm
07:12 -13.6 °C -13.9 °C 34852.1 hPa Calm     95 % 0 mm
07:17 -13.6 °C -13.9 °C 34852.1 hPa Calm     95 % 0 mm
07:27 -13.4 °C -13.9 °C 34865.6 hPa Calm     95 % 0 mm
07:32 -13.3 °C -13.7 °C 34865.6 hPa Calm     95 % 0 mm
07:37 -13.2 °C -13.6 °C 34865.6 hPa Calm     95 % 0 mm
07:42 -13.1 °C -13.5 °C 34865.6 hPa Calm     95 % 0 mm
07:47 -12.9 °C -13.4 °C 34865.6 hPa Calm     95 % 0 mm
07:52 -12.9 °C -13.4 °C 34865.6 hPa Calm     94 % 0 mm
07:57 -12.7 °C -13.2 °C 34875.8 hPa Calm     94 % 0 mm
08:02 -12.6 °C -13.1 °C 34875.8 hPa Calm     94 % 0 mm
08:12 -12.2 °C -12.7 °C 34875.8 hPa Calm     94 % 0 mm
08:17 -12 °C -12.5 °C 34875.8 hPa Calm     94 % 0 mm
08:22 -11.8 °C -12.4 °C 34875.8 hPa Calm     93 % 0 mm
08:32 -11.2 °C -11.9 °C 34875.8 hPa Calm     92 % 0 mm
08:37 -10.9 °C -11.9 °C 34875.8 hPa Calm     89 % 0 mm
08:42 -10.6 °C -11.8 °C 34875.8 hPa Calm     87 % 0 mm
08:47 -10.3 °C -11.8 °C 34875.8 hPa Calm     84 % 0 mm
08:52 -10.4 °C -12.1 °C 34875.8 hPa Calm     82 % 0 mm
08:57 -10.5 °C -11.9 °C 34875.8 hPa Calm     84 % 0 mm
09:02 -10.3 °C -11.8 °C 34875.8 hPa Calm     84 % 0 mm
09:12 -10 °C -11.7 °C 34875.8 hPa Calm     82 % 0 mm
09:17 -9.8 °C -11.7 °C 34889.3 hPa Calm     80 % 0 mm
09:22 -9.7 °C -11.5 °C 34889.3 hPa Calm     81 % 0 mm
09:27 -9.6 °C -11.5 °C 34889.3 hPa SSW 2.6 km/h 5.1 km/h 80 % 0 mm
09:32 -9.5 °C -11.4 °C 34889.3 hPa South 2.6 km/h 7.7 km/h 80 % 0 mm
09:37 -9.4 °C -11.2 °C 34889.3 hPa South 2.6 km/h 7.7 km/h 81 % 0 mm
09:42 -9.2 °C -11.3 °C 34889.3 hPa Calm   7.7 km/h 78 % 0 mm
09:52 -8.9 °C -11.2 °C 34889.3 hPa Calm   7.7 km/h 76 % 0 mm
10:02 -8.4 °C -11.3 °C 34899.5 hPa Calm   7.7 km/h 72 % 0 mm
10:12 -8.4 °C -11.6 °C 34899.5 hPa SSW 2.6 km/h 5.1 km/h 69 % 0 mm
10:17 -8.3 °C -11.2 °C 34899.5 hPa Calm   5.1 km/h 71 % 0 mm
10:22 -8.1 °C -11.2 °C 34899.5 hPa South 2.6 km/h 5.1 km/h 70 % 0 mm
10:32 -7.8 °C -11.1 °C 34899.5 hPa SW 5.1 km/h 5.1 km/h 69 % 0 mm
10:42 -7.4 °C -11.3 °C 34899.5 hPa SW 7.7 km/h 7.7 km/h 64 % 0 mm
10:47 -7.4 °C -11.1 °C 34899.5 hPa SSW 2.6 km/h 7.7 km/h 65 % 0 mm
10:52 -7.2 °C -11.1 °C 34899.5 hPa SSW 5.1 km/h 12.9 km/h 64 % 0 mm
10:57 -7.3 °C -11.4 °C 34899.5 hPa SSE 5.1 km/h 12.9 km/h 62 % 0 mm
11:02 -7.4 °C -11.4 °C 34909.7 hPa SSE 2.6 km/h 12.9 km/h 63 % 0 mm
11:12 -7.4 °C -11.2 °C 34909.7 hPa SW 2.6 km/h 15.6 km/h 64 % 0 mm
11:17 -7.4 °C -11.7 °C 34909.7 hPa SW 2.6 km/h 15.6 km/h 61 % 0 mm
11:22 -7.3 °C -11.2 °C 34899.5 hPa ESE 7.7 km/h 12.9 km/h 64 % 0 mm
11:32 -7.3 °C -11.2 °C 34909.7 hPa SSW 7.7 km/h 12.9 km/h 64 % 0 mm
11:42 -7.2 °C -10.9 °C 34909.7 hPa East 7.7 km/h 10.3 km/h 65 % 0 mm
11:52 -7.1 °C -11.2 °C 34899.5 hPa SE 5.1 km/h 10.3 km/h 62 % 0 mm
11:57 -7 °C -11.4 °C 34899.5 hPa South 2.6 km/h 10.3 km/h 60 % 0 mm
12:02 -6.9 °C -11.4 °C 34899.5 hPa SE 2.6 km/h 12.9 km/h 60 % 0 mm
12:12 -6.8 °C -11.1 °C 34899.5 hPa ESE 7.7 km/h 15.6 km/h 61 % 0 mm
12:17 -6.6 °C -11.6 °C 34899.5 hPa SSE 5.1 km/h 15.6 km/h 56 % 0 mm
12:22 -6.6 °C -12.1 °C 34899.5 hPa SSW 2.6 km/h 12.9 km/h 53 % 0 mm
12:27 -6.4 °C -11.5 °C 34899.5 hPa SW 10.3 km/h 12.9 km/h 56 % 0 mm
12:32 -6.4 °C -11.3 °C 34899.5 hPa SW 7.7 km/h 10.3 km/h 57 % 0 mm
12:37 -6.3 °C -11.6 °C 34899.5 hPa ESE 7.7 km/h 12.9 km/h 55 % 0 mm
12:42 -6.2 °C -11.4 °C 34899.5 hPa Calm   12.9 km/h 55 % 0 mm
12:52 -6.3 °C -11.5 °C 34899.5 hPa SE 2.6 km/h 18.2 km/h 55 % 0 mm
12:57 -6.3 °C -10.9 °C 34899.5 hPa SE 2.6 km/h 18.2 km/h 59 % 0 mm
13:02 -6.2 °C -11 °C 34899.5 hPa ENE 2.6 km/h 18.2 km/h 58 % 0 mm
13:12 -6.2 °C -11.6 °C 34899.5 hPa SSW 7.7 km/h 18.2 km/h 54 % 0 mm
13:17 -6.2 °C -11.6 °C 34899.5 hPa SE 2.6 km/h 18.2 km/h 54 % 0 mm
13:22 -6.3 °C -11.5 °C 34889.3 hPa East 5.1 km/h 18.2 km/h 55 % 0 mm
13:32 -6.1 °C -11 °C 34889.3 hPa Calm   15.6 km/h 57 % 0 mm
13:37 -5.9 °C -11.3 °C 34889.3 hPa NE 5.1 km/h 15.6 km/h 54 % 0 mm
13:42 -6 °C -11.7 °C 34889.3 hPa ENE 5.1 km/h 12.9 km/h 52 % 0 mm
13:47 -6 °C -11.6 °C 34889.3 hPa ENE 10.3 km/h 12.9 km/h 53 % 0 mm
13:52 -5.9 °C -11.7 °C 34889.3 hPa ESE 7.7 km/h 10.3 km/h 52 % 0 mm
13:57 -5.7 °C -11.1 °C 34889.3 hPa ENE 7.7 km/h 12.9 km/h 54 % 0 mm
14:02 -5.7 °C -11.6 °C 34889.3 hPa SW 2.6 km/h 12.9 km/h 51 % 0 mm
14:12 -5.8 °C -11.6 °C 34889.3 hPa East 5.1 km/h 12.9 km/h 52 % 0 mm
14:17 -5.6 °C -11.8 °C 34889.3 hPa Calm   12.9 km/h 49 % 0 mm
14:22 -5.3 °C -11.8 °C 34889.3 hPa Calm   12.9 km/h 48 % 0 mm
14:27 -5.2 °C -11.5 °C 34889.3 hPa WSW 5.1 km/h 12.9 km/h 49 % 0 mm
14:32 -5.3 °C -11.6 °C 34889.3 hPa ESE 2.6 km/h 10.3 km/h 49 % 0 mm
14:37 -5.2 °C -11.6 °C 34889.3 hPa SW 5.1 km/h 10.3 km/h 48 % 0 mm
14:42 -5.1 °C -11.4 °C 34889.3 hPa SE 2.6 km/h 12.9 km/h 49 % 0 mm
14:47 -4.9 °C -11.8 °C 34889.3 hPa ESE 5.1 km/h 12.9 km/h 46 % 0 mm
14:52 -5 °C -11.8 °C 34875.8 hPa East 2.6 km/h 12.9 km/h 46 % 0 mm
14:57 -5 °C -11.6 °C 34889.3 hPa South 5.1 km/h 12.9 km/h 47 % 0 mm
15:02 -5.1 °C -12.6 °C 34875.8 hPa Calm   12.9 km/h 42 % 0 mm
15:12 -5.3 °C -11.8 °C 34875.8 hPa South 7.7 km/h 15.6 km/h 48 % 0 mm
15:17 -5.2 °C -12.7 °C 34875.8 hPa Calm   15.6 km/h 42 % 0 mm
15:22 -5 °C -12.6 °C 34875.8 hPa SSE 2.6 km/h 12.9 km/h 42 % 0 mm
15:27 -4.9 °C -12.3 °C 34875.8 hPa Calm   15.6 km/h 43 % 0 mm
15:32 -5.1 °C -12.1 °C 34875.8 hPa SW 7.7 km/h 15.6 km/h 45 % 0 mm
15:42 -5.1 °C -11.6 °C 34865.6 hPa East 2.6 km/h 12.9 km/h 48 % 0 mm
15:47 -5.2 °C -12 °C 34875.8 hPa WSW 2.6 km/h 15.6 km/h 46 % 0 mm
15:57 -5.2 °C -11.3 °C 34865.6 hPa SSW 2.6 km/h 15.6 km/h 50 % 0 mm
16:02 -5.2 °C -11.8 °C 34865.6 hPa Calm   7.7 km/h 47 % 0 mm
16:12 -4.9 °C -11.6 °C 34865.6 hPa ESE 5.1 km/h 7.7 km/h 47 % 0 mm
16:17 -4.8 °C -12.2 °C 34865.6 hPa Calm   7.7 km/h 43 % 0 mm
16:27 -4.6 °C -11.9 °C 34852.1 hPa Calm   7.7 km/h 43 % 0 mm
16:32 -4.6 °C -12 °C 34852.1 hPa SW 10.3 km/h 10.3 km/h 43 % 0 mm
16:42 -5 °C -12 °C 34852.1 hPa SW 5.1 km/h 20.8 km/h 45 % 0 mm
16:52 -4.8 °C -12.2 °C 34852.1 hPa Calm   12.9 km/h 43 % 0 mm
16:57 -4.7 °C -12.3 °C 34852.1 hPa SE 2.6 km/h 10.3 km/h 42 % 0 mm
17:02 -4.7 °C -12.1 °C 34852.1 hPa Calm   10.3 km/h 43 % 0 mm
17:12 -4.7 °C -12.3 °C 34841.9 hPa Calm   12.9 km/h 42 % 0 mm
17:22 -4.7 °C -12.1 °C 34841.9 hPa WSW 7.7 km/h 12.9 km/h 43 % 0 mm
17:27 -4.7 °C -11.9 °C 34841.9 hPa SSW 5.1 km/h 12.9 km/h 44 % 0 mm
17:32 -4.7 °C -11.9 °C 34841.9 hPa Calm   15.6 km/h 44 % 0 mm
17:37 -4.6 °C -11.8 °C 34841.9 hPa SE 2.6 km/h 15.6 km/h 44 % 0 mm
17:42 -4.5 °C -11.7 °C 34841.9 hPa South 2.6 km/h 10.3 km/h 44 % 0 mm
17:52 -4.7 °C -11.3 °C 34831.8 hPa SW 2.6 km/h 12.9 km/h 47 % 0 mm
17:57 -4.5 °C -11 °C 34831.8 hPa SSE 2.6 km/h 12.9 km/h 48 % 0 mm
18:07 -4.2 °C -11.3 °C 34831.8 hPa Calm   7.7 km/h 45 % 0 mm
18:12 -4.2 °C -11.4 °C 34831.8 hPa Calm   7.7 km/h 44 % 0 mm
18:17 -4.1 °C -11.7 °C 34831.8 hPa SW 2.6 km/h 7.7 km/h 42 % 0 mm
18:22 -4.2 °C -11.7 °C 34831.8 hPa Calm   2.6 km/h 43 % 0 mm
18:32 -4.2 °C -11.4 °C 34831.8 hPa Calm   7.7 km/h 44 % 0 mm
18:37 -4.1 °C -11.3 °C 34831.8 hPa Calm   7.7 km/h 44 % 0 mm
18:42 -4.1 °C -11.4 °C 34831.8 hPa Calm   5.1 km/h 44 % 0 mm
18:52 -4.4 °C -11.6 °C 34831.8 hPa East 5.1 km/h 5.1 km/h 44 % 0 mm
19:02 -4.1 °C -11.4 °C 34831.8 hPa Calm   5.1 km/h 44 % 0 mm
19:12 -4.1 °C -11.7 °C 34831.8 hPa Calm   5.1 km/h 42 % 0 mm
19:22 -3.8 °C -11.7 °C 34831.8 hPa Calm   2.6 km/h 41 % 0 mm
19:32 -3.9 °C -11.8 °C 34831.8 hPa Calm   5.1 km/h 41 % 0 mm
19:37 -4 °C -11.7 °C 34831.8 hPa Calm   5.1 km/h 42 % 0 mm
19:42 -4.3 °C -11.8 °C 34831.8 hPa Calm   5.1 km/h 43 % 0 mm
19:52 -4.6 °C -11.8 °C 34831.8 hPa Calm     44 % 0 mm
19:57 -4.5 °C -11 °C 34831.8 hPa Calm     48 % 0 mm
20:02 -4.3 °C -11.2 °C 34831.8 hPa Calm     46 % 0 mm
20:07 -4.4 °C -11.1 °C 34831.8 hPa Calm     47 % 0 mm
20:12 -4.6 °C -10.7 °C 34831.8 hPa Calm     50 % 0 mm
20:17 -4.7 °C -10.2 °C 34831.8 hPa Calm     54 % 0 mm
20:22 -4.8 °C -11.2 °C 34831.8 hPa Calm     48 % 0 mm
20:27 -5.2 °C -11.8 °C 34831.8 hPa Calm     47 % 0 mm
20:32 -5.2 °C -11.5 °C 34831.8 hPa Calm     49 % 0 mm
20:37 -5.1 °C -11.3 °C 34831.8 hPa Calm     49 % 0 mm
20:42 -4.9 °C -10.8 °C 34831.8 hPa Calm     51 % 0 mm
20:47 -5.1 °C -10.8 °C 34831.8 hPa Calm     52 % 0 mm
20:52 -5.5 °C -11.4 °C 34831.8 hPa Calm     51 % 0 mm
20:57 -5.8 °C -11.5 °C 34831.8 hPa Calm     52 % 0 mm
21:02 -5.9 °C -11.2 °C 34831.8 hPa Calm     55 % 0 mm
21:12 -6.4 °C -11.3 °C 34831.8 hPa Calm     57 % 0 mm
21:17 -6.7 °C -11.4 °C 34831.8 hPa Calm     58 % 0 mm
21:22 -6.8 °C -11.1 °C 34831.8 hPa Calm     61 % 0 mm
21:32 -7.1 °C -11.2 °C 34841.9 hPa Calm     62 % 0 mm
21:37 -7.2 °C -11.2 °C 34841.9 hPa Calm     63 % 0 mm
21:42 -7.3 °C -10.8 °C 34841.9 hPa Calm     67 % 0 mm
21:52 -7.7 °C -10.9 °C 34852.1 hPa Calm     69 % 0 mm
22:02 -7.9 °C -10.5 °C 34852.1 hPa Calm     74 % 0 mm
22:12 -8.2 °C -10.7 °C 34852.1 hPa Calm     75 % 0 mm
22:17 -8.3 °C -10.8 °C 34852.1 hPa Calm     75 % 0 mm
22:22 -8.4 °C -11 °C 34852.1 hPa Calm     74 % 0 mm
22:32 -8.4 °C -11.1 °C 34852.1 hPa Calm   2.6 km/h 73 % 0 mm
22:37 -8.4 °C -11.1 °C 34852.1 hPa NNW 5.1 km/h 5.1 km/h 73 % 0 mm
22:42 -8.4 °C -11.1 °C 34852.1 hPa Calm   5.1 km/h 73 % 0 mm
22:47 -8.5 °C -11.1 °C 34852.1 hPa NNW 2.6 km/h 5.1 km/h 74 % 0 mm
22:52 -8.6 °C -11.3 °C 34852.1 hPa Calm   5.1 km/h 73 % 0 mm
22:57 -8.7 °C -11.2 °C 34852.1 hPa NW 2.6 km/h 2.6 km/h 75 % 0 mm
23:02 -8.7 °C -11.3 °C 34852.1 hPa NW 2.6 km/h 2.6 km/h 74 % 0 mm
23:12 -8.7 °C -11.3 °C 34852.1 hPa NW 2.6 km/h 2.6 km/h 74 % 0 mm
23:17 -8.8 °C -11.4 °C 34852.1 hPa Calm   2.6 km/h 74 % 0 mm
23:22 -9 °C -11.3 °C 34852.1 hPa Calm   2.6 km/h 76 % 0 mm
23:32 -9.3 °C -11.5 °C 34852.1 hPa Calm     77 % 0 mm
23:37 -9.2 °C -11.4 °C 34852.1 hPa Calm     77 % 0 mm
23:42 -9.1 °C -11.4 °C 34852.1 hPa Calm   2.6 km/h 76 % 0 mm
23:52 -9.2 °C -11.6 °C 34852.1 hPa NW 2.6 km/h 5.1 km/h 76 % 0 mm
23:57 -9.2 °C -11.4 °C 34852.1 hPa Calm   5.1 km/h 77 % 0 mm
Meteo18
Compliments of Weather Underground - 4 mb

Script developed by  Jim McMurry - jmcmurry@mwt.net Adapted for the template by  Wim van der Kuil - Leuven-Template.eu

You find our weather info also at:

European Weather Network

Weather Underground

Equipment we use:

Weather-station
Davis Vue

Weather-program
Meteobridge

Weather-server
Raspberry PI 2 B+

Provider
1 and 1

Davis Vue

Meteobridge

Raspberry PI 2 B+

1 and 1